sensor_id;sensor_type;location;lat;lon;timestamp;temperature;humidity
25188;DHT22;13141;50.414;8.050;2022-09-09T00:01:09;18.20;99.90
25188;DHT22;13141;50.414;8.050;2022-09-09T00:03:49;18.10;99.90
25188;DHT22;13141;50.414;8.050;2022-09-09T00:06:28;18.10;99.90
25188;DHT22;13141;50.414;8.050;2022-09-09T00:09:06;18.10;99.90
25188;DHT22;13141;50.414;8.050;2022-09-09T00:11:40;18.20;99.90
25188;DHT22;13141;50.414;8.050;2022-09-09T00:17:31;18.20;99.90
25188;DHT22;13141;50.414;8.050;2022-09-09T00:20:14;18.10;99.90
25188;DHT22;13141;50.414;8.050;2022-09-09T00:22:51;18.00;99.90
25188;DHT22;13141;50.414;8.050;2022-09-09T00:25:37;18.00;99.90
25188;DHT22;13141;50.414;8.050;2022-09-09T00:28:16;18.00;99.90
25188;DHT22;13141;50.414;8.050;2022-09-09T00:30:43;18.00;99.90
25188;DHT22;13141;50.414;8.050;2022-09-09T00:33:12;18.00;99.90
25188;DHT22;13141;50.414;8.050;2022-09-09T00:35:52;17.70;99.90
25188;DHT22;13141;50.414;8.050;2022-09-09T00:38:32;18.00;99.90
25188;DHT22;13141;50.414;8.050;2022-09-09T00:41:12;17.90;99.90
25188;DHT22;13141;50.414;8.050;2022-09-09T00:43:41;17.90;99.90
25188;DHT22;13141;50.414;8.050;2022-09-09T00:55:11;17.70;99.90
25188;DHT22;13141;50.414;8.050;2022-09-09T00:57:30;17.70;99.90
25188;DHT22;13141;50.414;8.050;2022-09-09T01:00:16;17.70;99.90
25188;DHT22;13141;50.414;8.050;2022-09-09T01:10:50;17.80;99.90
25188;DHT22;13141;50.414;8.050;2022-09-09T01:13:30;17.70;99.90
25188;DHT22;13141;50.414;8.050;2022-09-09T01:16:02;17.60;99.90
25188;DHT22;13141;50.414;8.050;2022-09-09T01:18:43;17.50;99.90
25188;DHT22;13141;50.414;8.050;2022-09-09T01:21:37;17.50;99.90
25188;DHT22;13141;50.414;8.050;2022-09-09T01:26:44;17.30;99.90
25188;DHT22;13141;50.414;8.050;2022-09-09T01:29:12;17.30;99.90
25188;DHT22;13141;50.414;8.050;2022-09-09T01:31:41;17.30;99.90
25188;DHT22;13141;50.414;8.050;2022-09-09T01:34:15;17.40;99.90
25188;DHT22;13141;50.414;8.050;2022-09-09T01:39:12;17.50;99.90
25188;DHT22;13141;50.414;8.050;2022-09-09T01:41:38;17.50;99.90
25188;DHT22;13141;50.414;8.050;2022-09-09T01:44:04;17.50;99.90
25188;DHT22;13141;50.414;8.050;2022-09-09T01:46:30;17.60;99.90
25188;DHT22;13141;50.414;8.050;2022-09-09T01:48:57;17.60;99.90
25188;DHT22;13141;50.414;8.050;2022-09-09T01:51:23;17.70;99.90
25188;DHT22;13141;50.414;8.050;2022-09-09T01:53:49;17.70;99.90
25188;DHT22;13141;50.414;8.050;2022-09-09T01:56:25;17.80;99.90
25188;DHT22;13141;50.414;8.050;2022-09-09T02:02:03;17.80;99.90
25188;DHT22;13141;50.414;8.050;2022-09-09T02:07:19;17.80;99.90
25188;DHT22;13141;50.414;8.050;2022-09-09T02:09:52;17.70;99.90
25188;DHT22;13141;50.414;8.050;2022-09-09T02:12:24;17.70;99.90
25188;DHT22;13141;50.414;8.050;2022-09-09T02:15:03;17.70;99.90
25188;DHT22;13141;50.414;8.050;2022-09-09T02:17:32;17.70;99.90
25188;DHT22;13141;50.414;8.050;2022-09-09T02:20:06;17.80;99.90
25188;DHT22;13141;50.414;8.050;2022-09-09T02:22:34;17.80;99.90
25188;DHT22;13141;50.414;8.050;2022-09-09T02:25:06;17.70;99.90
25188;DHT22;13141;50.414;8.050;2022-09-09T02:27:32;17.80;99.90
25188;DHT22;13141;50.414;8.050;2022-09-09T02:29:59;18.00;99.90
25188;DHT22;13141;50.414;8.050;2022-09-09T02:32:27;17.80;99.90
25188;DHT22;13141;50.414;8.050;2022-09-09T02:35:08;17.80;99.90
25188;DHT22;13141;50.414;8.050;2022-09-09T02:37:37;17.80;99.90
25188;DHT22;13141;50.414;8.050;2022-09-09T02:40:04;17.80;99.90
25188;DHT22;13141;50.414;8.050;2022-09-09T02:42:30;17.80;99.90
25188;DHT22;13141;50.414;8.050;2022-09-09T02:44:56;17.60;99.90
25188;DHT22;13141;50.414;8.050;2022-09-09T02:47:35;17.50;99.90
25188;DHT22;13141;50.414;8.050;2022-09-09T02:50:26;17.10;99.90
25188;DHT22;13141;50.414;8.050;2022-09-09T02:53:08;17.50;99.90
25188;DHT22;13141;50.414;8.050;2022-09-09T02:55:39;17.50;99.90
25188;DHT22;13141;50.414;8.050;2022-09-09T02:58:10;17.50;99.90
25188;DHT22;13141;50.414;8.050;2022-09-09T03:00:38;17.40;99.90
25188;DHT22;13141;50.414;8.050;2022-09-09T03:03:07;17.30;99.90
25188;DHT22;13141;50.414;8.050;2022-09-09T03:05:34;17.40;99.90
25188;DHT22;13141;50.414;8.050;2022-09-09T03:08:01;17.30;99.90
25188;DHT22;13141;50.414;8.050;2022-09-09T03:10:27;17.10;99.90
25188;DHT22;13141;50.414;8.050;2022-09-09T03:12:52;17.40;99.90
25188;DHT22;13141;50.414;8.050;2022-09-09T03:15:18;17.40;99.90
25188;DHT22;13141;50.414;8.050;2022-09-09T03:17:44;17.50;99.90
25188;DHT22;13141;50.414;8.050;2022-09-09T03:20:09;17.60;99.90
25188;DHT22;13141;50.414;8.050;2022-09-09T03:22:35;17.50;99.90
25188;DHT22;13141;50.414;8.050;2022-09-09T03:25:01;17.50;99.90
25188;DHT22;13141;50.414;8.050;2022-09-09T03:27:28;17.50;99.90
25188;DHT22;13141;50.414;8.050;2022-09-09T03:29:54;17.40;99.90
25188;DHT22;13141;50.414;8.050;2022-09-09T03:32:20;17.40;99.90
25188;DHT22;13141;50.414;8.050;2022-09-09T03:34:48;17.40;99.90
25188;DHT22;13141;50.414;8.050;2022-09-09T03:37:15;17.50;99.90
25188;DHT22;13141;50.414;8.050;2022-09-09T03:39:42;17.40;99.90
25188;DHT22;13141;50.414;8.050;2022-09-09T03:42:07;17.00;99.90
25188;DHT22;13141;50.414;8.050;2022-09-09T03:44:33;17.40;99.90
25188;DHT22;13141;50.414;8.050;2022-09-09T03:46:59;17.50;99.90
25188;DHT22;13141;50.414;8.050;2022-09-09T03:49:26;17.40;99.90
25188;DHT22;13141;50.414;8.050;2022-09-09T03:51:54;17.40;99.90
25188;DHT22;13141;50.414;8.050;2022-09-09T03:54:20;17.40;99.90
25188;DHT22;13141;50.414;8.050;2022-09-09T03:56:45;17.40;99.90
25188;DHT22;13141;50.414;8.050;2022-09-09T03:59:11;17.30;99.90
25188;DHT22;13141;50.414;8.050;2022-09-09T04:01:37;17.30;99.90
25188;DHT22;13141;50.414;8.050;2022-09-09T04:04:02;17.20;99.90
25188;DHT22;13141;50.414;8.050;2022-09-09T04:06:28;17.20;99.90
25188;DHT22;13141;50.414;8.050;2022-09-09T04:08:55;17.20;99.90
25188;DHT22;13141;50.414;8.050;2022-09-09T04:11:21;17.20;99.90
25188;DHT22;13141;50.414;8.050;2022-09-09T04:13:47;17.20;99.90
25188;DHT22;13141;50.414;8.050;2022-09-09T04:16:13;17.30;99.90
25188;DHT22;13141;50.414;8.050;2022-09-09T04:18:39;17.30;99.90
25188;DHT22;13141;50.414;8.050;2022-09-09T04:21:05;17.30;99.90
25188;DHT22;13141;50.414;8.050;2022-09-09T04:23:32;17.40;99.90
25188;DHT22;13141;50.414;8.050;2022-09-09T04:26:00;17.40;99.90
25188;DHT22;13141;50.414;8.050;2022-09-09T04:28:28;17.40;99.90
25188;DHT22;13141;50.414;8.050;2022-09-09T04:30:54;17.30;99.90
25188;DHT22;13141;50.414;8.050;2022-09-09T04:33:24;17.30;99.90
25188;DHT22;13141;50.414;8.050;2022-09-09T04:35:52;17.40;99.90
25188;DHT22;13141;50.414;8.050;2022-09-09T04:38:19;17.20;99.90
25188;DHT22;13141;50.414;8.050;2022-09-09T04:40:48;17.10;99.90
25188;DHT22;13141;50.414;8.050;2022-09-09T04:43:15;16.90;99.90
25188;DHT22;13141;50.414;8.050;2022-09-09T04:45:41;16.90;99.90
25188;DHT22;13141;50.414;8.050;2022-09-09T04:48:07;16.80;99.90
25188;DHT22;13141;50.414;8.050;2022-09-09T04:50:33;16.80;99.90
25188;DHT22;13141;50.414;8.050;2022-09-09T04:53:03;16.80;99.90
25188;DHT22;13141;50.414;8.050;2022-09-09T04:55:30;16.30;99.90
25188;DHT22;13141;50.414;8.050;2022-09-09T04:57:56;16.80;99.90
25188;DHT22;13141;50.414;8.050;2022-09-09T05:00:23;16.80;99.90
25188;DHT22;13141;50.414;8.050;2022-09-09T05:02:49;16.70;99.90
25188;DHT22;13141;50.414;8.050;2022-09-09T05:05:15;16.70;99.90
25188;DHT22;13141;50.414;8.050;2022-09-09T05:07:40;16.70;99.90
25188;DHT22;13141;50.414;8.050;2022-09-09T05:10:07;16.70;99.90
25188;DHT22;13141;50.414;8.050;2022-09-09T05:12:32;16.70;99.90
25188;DHT22;13141;50.414;8.050;2022-09-09T05:14:58;16.80;99.90
25188;DHT22;13141;50.414;8.050;2022-09-09T05:17:24;16.80;99.90
25188;DHT22;13141;50.414;8.050;2022-09-09T05:19:49;16.80;99.90
25188;DHT22;13141;50.414;8.050;2022-09-09T05:22:20;16.80;99.90
25188;DHT22;13141;50.414;8.050;2022-09-09T05:24:46;16.70;99.90
25188;DHT22;13141;50.414;8.050;2022-09-09T05:27:12;16.70;99.90
25188;DHT22;13141;50.414;8.050;2022-09-09T05:29:38;16.70;99.90
25188;DHT22;13141;50.414;8.050;2022-09-09T05:32:04;16.80;99.90
25188;DHT22;13141;50.414;8.050;2022-09-09T05:34:30;16.80;99.90
25188;DHT22;13141;50.414;8.050;2022-09-09T05:36:55;16.80;99.90
25188;DHT22;13141;50.414;8.050;2022-09-09T05:39:21;16.90;99.90
25188;DHT22;13141;50.414;8.050;2022-09-09T05:41:46;16.90;99.90
25188;DHT22;13141;50.414;8.050;2022-09-09T05:44:12;17.00;99.90
25188;DHT22;13141;50.414;8.050;2022-09-09T05:46:39;17.10;99.90
25188;DHT22;13141;50.414;8.050;2022-09-09T05:49:05;17.20;99.90
25188;DHT22;13141;50.414;8.050;2022-09-09T05:51:30;17.30;99.90
25188;DHT22;13141;50.414;8.050;2022-09-09T05:53:56;17.30;99.90
25188;DHT22;13141;50.414;8.050;2022-09-09T05:56:26;17.40;99.90
25188;DHT22;13141;50.414;8.050;2022-09-09T05:58:53;17.40;99.90
25188;DHT22;13141;50.414;8.050;2022-09-09T06:01:27;17.40;99.90
25188;DHT22;13141;50.414;8.050;2022-09-09T06:03:53;17.50;99.90
25188;DHT22;13141;50.414;8.050;2022-09-09T06:06:21;17.40;99.90
25188;DHT22;13141;50.414;8.050;2022-09-09T06:08:49;17.30;99.90
25188;DHT22;13141;50.414;8.050;2022-09-09T06:11:25;17.20;99.90
25188;DHT22;13141;50.414;8.050;2022-09-09T06:13:51;17.20;99.90
25188;DHT22;13141;50.414;8.050;2022-09-09T06:16:21;17.20;99.90
25188;DHT22;13141;50.414;8.050;2022-09-09T06:18:48;17.30;99.90
25188;DHT22;13141;50.414;8.050;2022-09-09T06:21:19;17.30;99.90
25188;DHT22;13141;50.414;8.050;2022-09-09T06:23:46;17.30;99.90
25188;DHT22;13141;50.414;8.050;2022-09-09T06:28:38;17.40;99.90
25188;DHT22;13141;50.414;8.050;2022-09-09T06:31:09;17.40;99.90
25188;DHT22;13141;50.414;8.050;2022-09-09T06:33:36;17.40;99.90
25188;DHT22;13141;50.414;8.050;2022-09-09T06:36:05;17.40;99.90
25188;DHT22;13141;50.414;8.050;2022-09-09T06:38:30;17.50;99.90
25188;DHT22;13141;50.414;8.050;2022-09-09T06:40:58;17.60;99.90
25188;DHT22;13141;50.414;8.050;2022-09-09T06:43:25;17.60;99.90
25188;DHT22;13141;50.414;8.050;2022-09-09T06:48:26;17.70;99.90
25188;DHT22;13141;50.414;8.050;2022-09-09T06:51:07;17.80;99.90
25188;DHT22;13141;50.414;8.050;2022-09-09T06:53:34;18.00;99.90
25188;DHT22;13141;50.414;8.050;2022-09-09T06:56:27;18.00;99.90
25188;DHT22;13141;50.414;8.050;2022-09-09T06:58:54;18.10;99.90
25188;DHT22;13141;50.414;8.050;2022-09-09T07:01:25;18.10;99.90
25188;DHT22;13141;50.414;8.050;2022-09-09T07:03:53;18.10;99.90
25188;DHT22;13141;50.414;8.050;2022-09-09T07:06:24;18.40;99.90
25188;DHT22;13141;50.414;8.050;2022-09-09T07:08:55;18.10;99.90
25188;DHT22;13141;50.414;8.050;2022-09-09T07:11:23;18.10;99.90
25188;DHT22;13141;50.414;8.050;2022-09-09T07:13:49;18.10;99.90
25188;DHT22;13141;50.414;8.050;2022-09-09T07:16:17;18.10;99.90
25188;DHT22;13141;50.414;8.050;2022-09-09T07:18:43;18.10;99.90
25188;DHT22;13141;50.414;8.050;2022-09-09T07:21:10;18.20;99.90
25188;DHT22;13141;50.414;8.050;2022-09-09T07:23:37;18.20;99.90
25188;DHT22;13141;50.414;8.050;2022-09-09T07:26:08;18.30;99.90
25188;DHT22;13141;50.414;8.050;2022-09-09T07:28:34;18.50;99.90
25188;DHT22;13141;50.414;8.050;2022-09-09T07:31:01;18.50;99.90
25188;DHT22;13141;50.414;8.050;2022-09-09T07:33:34;18.40;99.90
25188;DHT22;13141;50.414;8.050;2022-09-09T07:36:27;18.50;99.90
25188;DHT22;13141;50.414;8.050;2022-09-09T07:38:55;18.60;99.90
25188;DHT22;13141;50.414;8.050;2022-09-09T07:41:27;18.80;99.90
25188;DHT22;13141;50.414;8.050;2022-09-09T07:43:54;19.00;99.90
25188;DHT22;13141;50.414;8.050;2022-09-09T07:46:21;19.10;99.90
25188;DHT22;13141;50.414;8.050;2022-09-09T07:48:49;19.00;99.90
25188;DHT22;13141;50.414;8.050;2022-09-09T07:51:21;19.00;99.90
25188;DHT22;13141;50.414;8.050;2022-09-09T07:53:48;19.10;99.90
25188;DHT22;13141;50.414;8.050;2022-09-09T07:56:16;19.20;99.90
25188;DHT22;13141;50.414;8.050;2022-09-09T07:58:45;19.30;99.90
25188;DHT22;13141;50.414;8.050;2022-09-09T08:01:17;19.30;99.90
25188;DHT22;13141;50.414;8.050;2022-09-09T08:03:46;19.30;99.90
25188;DHT22;13141;50.414;8.050;2022-09-09T08:06:13;19.30;99.90
25188;DHT22;13141;50.414;8.050;2022-09-09T08:08:39;19.30;99.90
25188;DHT22;13141;50.414;8.050;2022-09-09T08:11:14;19.30;99.90
25188;DHT22;13141;50.414;8.050;2022-09-09T08:13:42;19.30;99.90
25188;DHT22;13141;50.414;8.050;2022-09-09T08:16:14;19.00;99.90
25188;DHT22;13141;50.414;8.050;2022-09-09T08:18:40;19.50;99.90
25188;DHT22;13141;50.414;8.050;2022-09-09T08:21:11;19.70;99.90
25188;DHT22;13141;50.414;8.050;2022-09-09T08:23:38;19.80;99.90
25188;DHT22;13141;50.414;8.050;2022-09-09T08:26:15;19.90;99.90
25188;DHT22;13141;50.414;8.050;2022-09-09T08:28:43;19.90;99.90
25188;DHT22;13141;50.414;8.050;2022-09-09T08:31:21;19.70;99.90
25188;DHT22;13141;50.414;8.050;2022-09-09T08:33:47;19.80;99.90
25188;DHT22;13141;50.414;8.050;2022-09-09T08:36:18;19.90;99.90
25188;DHT22;13141;50.414;8.050;2022-09-09T08:38:47;20.00;99.90
25188;DHT22;13141;50.414;8.050;2022-09-09T08:41:37;20.00;99.90
25188;DHT22;13141;50.414;8.050;2022-09-09T08:47:30;19.90;99.90
25188;DHT22;13141;50.414;8.050;2022-09-09T08:50:08;20.00;99.90
25188;DHT22;13141;50.414;8.050;2022-09-09T08:52:41;20.10;99.90
25188;DHT22;13141;50.414;8.050;2022-09-09T08:57:54;20.30;99.90
25188;DHT22;13141;50.414;8.050;2022-09-09T09:00:21;20.60;99.90
25188;DHT22;13141;50.414;8.050;2022-09-09T09:08:26;21.40;99.50
25188;DHT22;13141;50.414;8.050;2022-09-09T09:10:56;21.80;98.00
25188;DHT22;13141;50.414;8.050;2022-09-09T09:13:45;21.80;97.90
25188;DHT22;13141;50.414;8.050;2022-09-09T09:16:35;22.10;98.00
25188;DHT22;13141;50.414;8.050;2022-09-09T09:19:05;22.20;97.90
25188;DHT22;13141;50.414;8.050;2022-09-09T09:21:50;22.20;98.00
25188;DHT22;13141;50.414;8.050;2022-09-09T09:24:20;22.50;96.40
25188;DHT22;13141;50.414;8.050;2022-09-09T09:26:47;22.60;96.50
25188;DHT22;13141;50.414;8.050;2022-09-09T09:29:17;22.80;95.70
25188;DHT22;13141;50.414;8.050;2022-09-09T09:31:45;22.60;94.80
25188;DHT22;13141;50.414;8.050;2022-09-09T09:34:13;22.30;95.30
25188;DHT22;13141;50.414;8.050;2022-09-09T09:36:44;22.20;95.20
25188;DHT22;13141;50.414;8.050;2022-09-09T09:39:25;22.30;95.40
25188;DHT22;13141;50.414;8.050;2022-09-09T09:41:52;21.90;95.40
25188;DHT22;13141;50.414;8.050;2022-09-09T09:44:30;22.10;95.60
25188;DHT22;13141;50.414;8.050;2022-09-09T09:47:25;22.40;95.20
25188;DHT22;13141;50.414;8.050;2022-09-09T09:49:56;22.60;95.30
25188;DHT22;13141;50.414;8.050;2022-09-09T09:52:29;22.60;94.50
25188;DHT22;13141;50.414;8.050;2022-09-09T09:54:57;22.70;95.30
25188;DHT22;13141;50.414;8.050;2022-09-09T09:57:26;22.70;96.20
25188;DHT22;13141;50.414;8.050;2022-09-09T10:00:14;23.00;96.50
25188;DHT22;13141;50.414;8.050;2022-09-09T10:02:43;23.70;96.40
25188;DHT22;13141;50.414;8.050;2022-09-09T10:05:14;24.10;95.00
25188;DHT22;13141;50.414;8.050;2022-09-09T10:07:40;24.40;93.40
25188;DHT22;13141;50.414;8.050;2022-09-09T10:10:11;24.50;92.80
25188;DHT22;13141;50.414;8.050;2022-09-09T10:13:06;24.60;92.10
25188;DHT22;13141;50.414;8.050;2022-09-09T10:21:25;24.70;91.20
25188;DHT22;13141;50.414;8.050;2022-09-09T10:24:27;24.60;90.50
25188;DHT22;13141;50.414;8.050;2022-09-09T10:35:44;24.50;88.80
25188;DHT22;13141;50.414;8.050;2022-09-09T10:44:10;23.80;89.80
25188;DHT22;13141;50.414;8.050;2022-09-09T10:55:11;23.30;89.40
25188;DHT22;13141;50.414;8.050;2022-09-09T10:57:51;23.50;89.50
25188;DHT22;13141;50.414;8.050;2022-09-09T11:00:22;23.60;88.60
25188;DHT22;13141;50.414;8.050;2022-09-09T11:03:00;23.70;89.10
25188;DHT22;13141;50.414;8.050;2022-09-09T11:05:54;23.90;88.30
25188;DHT22;13141;50.414;8.050;2022-09-09T11:08:25;24.00;86.90
25188;DHT22;13141;50.414;8.050;2022-09-09T11:10:59;23.80;86.80
25188;DHT22;13141;50.414;8.050;2022-09-09T11:15:59;23.20;87.40
25188;DHT22;13141;50.414;8.050;2022-09-09T11:18:28;23.20;89.00
25188;DHT22;13141;50.414;8.050;2022-09-09T11:20:59;22.80;89.70
25188;DHT22;13141;50.414;8.050;2022-09-09T11:23:40;22.80;90.10
25188;DHT22;13141;50.414;8.050;2022-09-09T11:26:12;22.80;90.90
25188;DHT22;13141;50.414;8.050;2022-09-09T11:28:56;23.10;90.60
25188;DHT22;13141;50.414;8.050;2022-09-09T11:31:46;23.00;90.30
25188;DHT22;13141;50.414;8.050;2022-09-09T11:34:39;23.70;90.20
25188;DHT22;13141;50.414;8.050;2022-09-09T11:37:29;23.30;87.40
25188;DHT22;13141;50.414;8.050;2022-09-09T11:40:14;23.40;89.10
25188;DHT22;13141;50.414;8.050;2022-09-09T11:42:41;23.50;88.70
25188;DHT22;13141;50.414;8.050;2022-09-09T11:45:23;23.70;87.30
25188;DHT22;13141;50.414;8.050;2022-09-09T11:47:54;24.00;86.10
25188;DHT22;13141;50.414;8.050;2022-09-09T11:52:49;24.20;85.50
25188;DHT22;13141;50.414;8.050;2022-09-09T11:55:29;24.20;85.50
25188;DHT22;13141;50.414;8.050;2022-09-09T11:58:04;24.20;86.70
25188;DHT22;13141;50.414;8.050;2022-09-09T12:00:35;24.30;85.60
25188;DHT22;13141;50.414;8.050;2022-09-09T12:03:06;24.30;84.40
25188;DHT22;13141;50.414;8.050;2022-09-09T12:05:51;24.70;84.90
25188;DHT22;13141;50.414;8.050;2022-09-09T12:08:26;24.70;84.70
25188;DHT22;13141;50.414;8.050;2022-09-09T12:10:55;24.00;85.50
25188;DHT22;13141;50.414;8.050;2022-09-09T12:13:24;24.10;86.30
25188;DHT22;13141;50.414;8.050;2022-09-09T12:15:51;24.80;87.40
25188;DHT22;13141;50.414;8.050;2022-09-09T12:23:35;25.00;86.80
25188;DHT22;13141;50.414;8.050;2022-09-09T12:26:08;25.60;86.40
25188;DHT22;13141;50.414;8.050;2022-09-09T12:34:52;24.90;86.60
25188;DHT22;13141;50.414;8.050;2022-09-09T12:40:05;23.80;87.60
25188;DHT22;13141;50.414;8.050;2022-09-09T12:42:31;23.60;88.10
25188;DHT22;13141;50.414;8.050;2022-09-09T12:45:02;23.60;88.40
25188;DHT22;13141;50.414;8.050;2022-09-09T12:47:35;23.60;89.00
25188;DHT22;13141;50.414;8.050;2022-09-09T12:50:02;23.80;88.50
25188;DHT22;13141;50.414;8.050;2022-09-09T12:52:32;24.50;90.40
25188;DHT22;13141;50.414;8.050;2022-09-09T12:55:00;24.30;90.00
25188;DHT22;13141;50.414;8.050;2022-09-09T12:57:33;24.20;90.20
25188;DHT22;13141;50.414;8.050;2022-09-09T13:02:51;24.20;87.70
25188;DHT22;13141;50.414;8.050;2022-09-09T13:05:21;23.80;89.30
25188;DHT22;13141;50.414;8.050;2022-09-09T13:07:47;23.80;90.80
25188;DHT22;13141;50.414;8.050;2022-09-09T13:10:15;24.20;91.10
25188;DHT22;13141;50.414;8.050;2022-09-09T13:12:42;25.00;90.90
25188;DHT22;13141;50.414;8.050;2022-09-09T13:15:19;25.60;90.60
25188;DHT22;13141;50.414;8.050;2022-09-09T13:17:51;25.80;89.30
25188;DHT22;13141;50.414;8.050;2022-09-09T13:20:19;25.60;86.60
25188;DHT22;13141;50.414;8.050;2022-09-09T13:22:47;24.70;87.60
25188;DHT22;13141;50.414;8.050;2022-09-09T13:25:40;24.80;87.20
25188;DHT22;13141;50.414;8.050;2022-09-09T13:28:21;25.30;88.90
25188;DHT22;13141;50.414;8.050;2022-09-09T13:30:57;25.90;86.40
25188;DHT22;13141;50.414;8.050;2022-09-09T13:33:38;26.00;83.90
25188;DHT22;13141;50.414;8.050;2022-09-09T13:36:11;25.60;84.00
25188;DHT22;13141;50.414;8.050;2022-09-09T13:38:59;25.00;85.90
25188;DHT22;13141;50.414;8.050;2022-09-09T13:43:55;24.20;90.40
25188;DHT22;13141;50.414;8.050;2022-09-09T13:46:40;23.80;91.30
25188;DHT22;13141;50.414;8.050;2022-09-09T13:51:40;23.80;91.20
25188;DHT22;13141;50.414;8.050;2022-09-09T13:54:10;23.80;91.50
25188;DHT22;13141;50.414;8.050;2022-09-09T13:56:37;23.60;90.80
25188;DHT22;13141;50.414;8.050;2022-09-09T13:59:05;23.60;90.70
25188;DHT22;13141;50.414;8.050;2022-09-09T14:01:31;23.70;90.50
25188;DHT22;13141;50.414;8.050;2022-09-09T14:04:00;23.90;90.10
25188;DHT22;13141;50.414;8.050;2022-09-09T14:06:25;24.10;90.00
25188;DHT22;13141;50.414;8.050;2022-09-09T14:08:52;23.90;90.20
25188;DHT22;13141;50.414;8.050;2022-09-09T14:11:20;23.50;91.10
25188;DHT22;13141;50.414;8.050;2022-09-09T14:13:47;23.00;91.50
25188;DHT22;13141;50.414;8.050;2022-09-09T14:16:12;22.70;90.80
25188;DHT22;13141;50.414;8.050;2022-09-09T14:18:39;22.40;88.50
25188;DHT22;13141;50.414;8.050;2022-09-09T14:21:06;21.80;90.70
25188;DHT22;13141;50.414;8.050;2022-09-09T14:23:31;21.40;92.90
25188;DHT22;13141;50.414;8.050;2022-09-09T14:25:57;21.20;94.80
25188;DHT22;13141;50.414;8.050;2022-09-09T14:28:23;21.70;96.10
25188;DHT22;13141;50.414;8.050;2022-09-09T14:30:49;22.30;96.00
25188;DHT22;13141;50.414;8.050;2022-09-09T14:33:16;22.00;96.40
25188;DHT22;13141;50.414;8.050;2022-09-09T14:35:42;22.30;96.50
25188;DHT22;13141;50.414;8.050;2022-09-09T14:38:09;22.70;96.80
25188;DHT22;13141;50.414;8.050;2022-09-09T14:40:36;23.10;97.00
25188;DHT22;13141;50.414;8.050;2022-09-09T14:43:03;23.10;96.80
25188;DHT22;13141;50.414;8.050;2022-09-09T14:45:29;23.20;96.60
25188;DHT22;13141;50.414;8.050;2022-09-09T14:47:54;23.40;96.90
25188;DHT22;13141;50.414;8.050;2022-09-09T14:50:21;23.70;96.70
25188;DHT22;13141;50.414;8.050;2022-09-09T14:52:47;23.40;96.30
25188;DHT22;13141;50.414;8.050;2022-09-09T14:55:14;22.80;97.50
25188;DHT22;13141;50.414;8.050;2022-09-09T14:57:41;22.30;98.30
25188;DHT22;13141;50.414;8.050;2022-09-09T15:00:08;21.80;99.20
25188;DHT22;13141;50.414;8.050;2022-09-09T15:02:34;21.60;99.60
25188;DHT22;13141;50.414;8.050;2022-09-09T15:04:59;21.50;99.90
25188;DHT22;13141;50.414;8.050;2022-09-09T15:07:25;21.50;99.90
25188;DHT22;13141;50.414;8.050;2022-09-09T15:09:52;21.40;99.90
25188;DHT22;13141;50.414;8.050;2022-09-09T15:12:18;21.40;99.90
25188;DHT22;13141;50.414;8.050;2022-09-09T15:14:45;21.40;99.90
25188;DHT22;13141;50.414;8.050;2022-09-09T15:17:10;21.30;99.90
25188;DHT22;13141;50.414;8.050;2022-09-09T15:19:36;21.20;99.90
25188;DHT22;13141;50.414;8.050;2022-09-09T15:22:03;21.20;99.90
25188;DHT22;13141;50.414;8.050;2022-09-09T15:24:31;20.90;99.90
25188;DHT22;13141;50.414;8.050;2022-09-09T15:26:56;20.90;99.90
25188;DHT22;13141;50.414;8.050;2022-09-09T15:29:23;20.90;99.90
25188;DHT22;13141;50.414;8.050;2022-09-09T15:31:48;21.00;99.90
25188;DHT22;13141;50.414;8.050;2022-09-09T15:34:14;20.80;99.90
25188;DHT22;13141;50.414;8.050;2022-09-09T15:36:44;20.80;99.90
25188;DHT22;13141;50.414;8.050;2022-09-09T15:39:13;20.80;99.90
25188;DHT22;13141;50.414;8.050;2022-09-09T15:41:42;20.80;99.90
25188;DHT22;13141;50.414;8.050;2022-09-09T15:44:08;20.80;99.90
25188;DHT22;13141;50.414;8.050;2022-09-09T15:46:44;20.60;99.90
25188;DHT22;13141;50.414;8.050;2022-09-09T15:49:18;20.40;99.90
25188;DHT22;13141;50.414;8.050;2022-09-09T15:51:55;19.90;99.90
25188;DHT22;13141;50.414;8.050;2022-09-09T15:54:22;19.20;99.90
25188;DHT22;13141;50.414;8.050;2022-09-09T15:56:57;19.10;99.90
25188;DHT22;13141;50.414;8.050;2022-09-09T15:59:24;19.00;99.90
25188;DHT22;13141;50.414;8.050;2022-09-09T16:01:50;18.70;99.90
25188;DHT22;13141;50.414;8.050;2022-09-09T16:04:19;18.50;99.90
25188;DHT22;13141;50.414;8.050;2022-09-09T16:06:59;18.60;99.90
25188;DHT22;13141;50.414;8.050;2022-09-09T16:09:26;18.40;99.90
25188;DHT22;13141;50.414;8.050;2022-09-09T16:11:52;18.50;99.90
25188;DHT22;13141;50.414;8.050;2022-09-09T16:14:19;18.40;99.90
25188;DHT22;13141;50.414;8.050;2022-09-09T16:16:45;18.40;99.90
25188;DHT22;13141;50.414;8.050;2022-09-09T16:19:12;18.40;99.90
25188;DHT22;13141;50.414;8.050;2022-09-09T16:21:48;18.30;99.90
25188;DHT22;13141;50.414;8.050;2022-09-09T16:24:17;18.20;99.90
25188;DHT22;13141;50.414;8.050;2022-09-09T16:26:48;18.30;99.90
25188;DHT22;13141;50.414;8.050;2022-09-09T16:29:16;18.30;99.90
25188;DHT22;13141;50.414;8.050;2022-09-09T16:31:43;18.40;99.90
25188;DHT22;13141;50.414;8.050;2022-09-09T16:34:09;18.50;99.90
25188;DHT22;13141;50.414;8.050;2022-09-09T16:36:36;18.60;99.90
25188;DHT22;13141;50.414;8.050;2022-09-09T16:39:05;18.60;99.90
25188;DHT22;13141;50.414;8.050;2022-09-09T16:41:32;18.50;99.90
25188;DHT22;13141;50.414;8.050;2022-09-09T16:44:03;18.50;99.90
25188;DHT22;13141;50.414;8.050;2022-09-09T16:46:30;18.50;99.90
25188;DHT22;13141;50.414;8.050;2022-09-09T16:48:57;18.50;99.90
25188;DHT22;13141;50.414;8.050;2022-09-09T16:51:38;18.60;99.90
25188;DHT22;13141;50.414;8.050;2022-09-09T16:54:05;18.60;99.90
25188;DHT22;13141;50.414;8.050;2022-09-09T16:56:39;18.60;99.90
25188;DHT22;13141;50.414;8.050;2022-09-09T16:59:14;18.70;99.90
25188;DHT22;13141;50.414;8.050;2022-09-09T17:01:41;18.60;99.90
25188;DHT22;13141;50.414;8.050;2022-09-09T17:04:10;18.70;99.90
25188;DHT22;13141;50.414;8.050;2022-09-09T17:06:37;18.70;99.90
25188;DHT22;13141;50.414;8.050;2022-09-09T17:09:06;18.70;99.90
25188;DHT22;13141;50.414;8.050;2022-09-09T17:11:33;18.60;99.90
25188;DHT22;13141;50.414;8.050;2022-09-09T17:13:59;18.50;99.90
25188;DHT22;13141;50.414;8.050;2022-09-09T17:16:28;18.40;99.90
25188;DHT22;13141;50.414;8.050;2022-09-09T17:18:55;18.30;99.90
25188;DHT22;13141;50.414;8.050;2022-09-09T17:21:23;18.20;99.90
25188;DHT22;13141;50.414;8.050;2022-09-09T17:23:51;18.20;99.90
25188;DHT22;13141;50.414;8.050;2022-09-09T17:26:19;18.20;99.90
25188;DHT22;13141;50.414;8.050;2022-09-09T17:28:45;18.20;99.90
25188;DHT22;13141;50.414;8.050;2022-09-09T17:31:14;18.10;99.90
25188;DHT22;13141;50.414;8.050;2022-09-09T17:33:43;18.00;99.90